sensor_id;sensor_type;location;lat;lon;timestamp;P1;durP1;ratioP1;P2;durP2;ratioP2
63688;SDS011;54895;40.928;14.480;2023-04-01T00:00:57;21.15;;;8.35;;
63688;SDS011;54895;40.928;14.480;2023-04-01T00:03:26;20.77;;;9.32;;
63688;SDS011;54895;40.928;14.480;2023-04-01T00:05:53;18.08;;;8.32;;
63688;SDS011;54895;40.928;14.480;2023-04-01T00:08:22;15.75;;;7.85;;
63688;SDS011;54895;40.928;14.480;2023-04-01T00:10:49;21.58;;;7.78;;
63688;SDS011;54895;40.928;14.480;2023-04-01T00:13:16;17.15;;;7.90;;
63688;SDS011;54895;40.928;14.480;2023-04-01T00:15:42;14.68;;;7.47;;
63688;SDS011;54895;40.928;14.480;2023-04-01T00:18:09;15.60;;;7.78;;
63688;SDS011;54895;40.928;14.480;2023-04-01T00:20:36;17.65;;;7.95;;
63688;SDS011;54895;40.928;14.480;2023-04-01T00:23:02;16.65;;;7.57;;
63688;SDS011;54895;40.928;14.480;2023-04-01T00:25:29;14.95;;;7.93;;
63688;SDS011;54895;40.928;14.480;2023-04-01T00:27:55;19.70;;;7.55;;
63688;SDS011;54895;40.928;14.480;2023-04-01T00:30:22;21.02;;;7.65;;
63688;SDS011;54895;40.928;14.480;2023-04-01T00:32:51;18.65;;;8.30;;
63688;SDS011;54895;40.928;14.480;2023-04-01T00:35:18;12.82;;;6.72;;
63688;SDS011;54895;40.928;14.480;2023-04-01T00:37:45;17.67;;;7.80;;
63688;SDS011;54895;40.928;14.480;2023-04-01T00:40:23;19.10;;;8.55;;
63688;SDS011;54895;40.928;14.480;2023-04-01T00:42:50;16.27;;;8.00;;
63688;SDS011;54895;40.928;14.480;2023-04-01T00:45:24;12.60;;;7.70;;
63688;SDS011;54895;40.928;14.480;2023-04-01T00:48:02;15.73;;;7.90;;
63688;SDS011;54895;40.928;14.480;2023-04-01T00:50:42;16.50;;;7.57;;
63688;SDS011;54895;40.928;14.480;2023-04-01T00:53:13;15.85;;;7.82;;
63688;SDS011;54895;40.928;14.480;2023-04-01T00:55:44;17.48;;;7.85;;
63688;SDS011;54895;40.928;14.480;2023-04-01T00:58:20;16.10;;;7.57;;
63688;SDS011;54895;40.928;14.480;2023-04-01T01:00:49;15.95;;;6.93;;
63688;SDS011;54895;40.928;14.480;2023-04-01T01:03:17;14.02;;;6.10;;
63688;SDS011;54895;40.928;14.480;2023-04-01T01:05:52;19.38;;;7.35;;
63688;SDS011;54895;40.928;14.480;2023-04-01T01:08:33;17.17;;;7.20;;
63688;SDS011;54895;40.928;14.480;2023-04-01T01:11:12;17.52;;;7.75;;
63688;SDS011;54895;40.928;14.480;2023-04-01T01:14:01;13.88;;;6.78;;
63688;SDS011;54895;40.928;14.480;2023-04-01T01:16:37;20.90;;;7.10;;
63688;SDS011;54895;40.928;14.480;2023-04-01T01:24:53;13.05;;;6.68;;
63688;SDS011;54895;40.928;14.480;2023-04-01T01:27:28;20.35;;;7.93;;
63688;SDS011;54895;40.928;14.480;2023-04-01T01:29:59;14.32;;;6.43;;
63688;SDS011;54895;40.928;14.480;2023-04-01T01:35:45;18.23;;;7.10;;
63688;SDS011;54895;40.928;14.480;2023-04-01T01:38:19;18.83;;;6.63;;
63688;SDS011;54895;40.928;14.480;2023-04-01T01:40:55;18.27;;;7.65;;
63688;SDS011;54895;40.928;14.480;2023-04-01T01:43:25;15.60;;;7.60;;
63688;SDS011;54895;40.928;14.480;2023-04-01T01:45:57;17.23;;;6.70;;
63688;SDS011;54895;40.928;14.480;2023-04-01T01:48:28;14.23;;;6.55;;
63688;SDS011;54895;40.928;14.480;2023-04-01T01:50:56;14.57;;;7.00;;
63688;SDS011;54895;40.928;14.480;2023-04-01T01:53:23;15.45;;;6.57;;
63688;SDS011;54895;40.928;14.480;2023-04-01T01:55:50;16.05;;;7.13;;
63688;SDS011;54895;40.928;14.480;2023-04-01T02:01:07;13.23;;;7.00;;
63688;SDS011;54895;40.928;14.480;2023-04-01T02:03:43;17.60;;;6.72;;
63688;SDS011;54895;40.928;14.480;2023-04-01T02:06:13;18.23;;;7.53;;
63688;SDS011;54895;40.928;14.480;2023-04-01T02:08:50;16.20;;;7.43;;
63688;SDS011;54895;40.928;14.480;2023-04-01T02:11:23;15.27;;;6.85;;
63688;SDS011;54895;40.928;14.480;2023-04-01T02:14:00;16.90;;;6.50;;
63688;SDS011;54895;40.928;14.480;2023-04-01T02:19:11;15.57;;;6.90;;
63688;SDS011;54895;40.928;14.480;2023-04-01T02:21:40;15.48;;;6.80;;
63688;SDS011;54895;40.928;14.480;2023-04-01T02:24:10;13.40;;;6.50;;
63688;SDS011;54895;40.928;14.480;2023-04-01T02:26:40;13.85;;;6.68;;
63688;SDS011;54895;40.928;14.480;2023-04-01T02:29:07;15.68;;;5.80;;
63688;SDS011;54895;40.928;14.480;2023-04-01T02:31:35;14.50;;;6.38;;
63688;SDS011;54895;40.928;14.480;2023-04-01T02:34:02;12.85;;;6.47;;
63688;SDS011;54895;40.928;14.480;2023-04-01T02:36:30;18.58;;;6.88;;
63688;SDS011;54895;40.928;14.480;2023-04-01T02:38:57;12.63;;;5.50;;
63688;SDS011;54895;40.928;14.480;2023-04-01T02:41:28;20.08;;;6.40;;
63688;SDS011;54895;40.928;14.480;2023-04-01T02:43:54;16.17;;;6.25;;
63688;SDS011;54895;40.928;14.480;2023-04-01T02:46:23;16.15;;;6.18;;
63688;SDS011;54895;40.928;14.480;2023-04-01T02:48:50;18.73;;;6.00;;
63688;SDS011;54895;40.928;14.480;2023-04-01T02:51:16;14.00;;;5.80;;
63688;SDS011;54895;40.928;14.480;2023-04-01T02:53:43;20.75;;;6.18;;
63688;SDS011;54895;40.928;14.480;2023-04-01T02:56:09;21.85;;;6.05;;
63688;SDS011;54895;40.928;14.480;2023-04-01T02:58:36;18.88;;;6.28;;
63688;SDS011;54895;40.928;14.480;2023-04-01T03:01:02;21.60;;;6.68;;
63688;SDS011;54895;40.928;14.480;2023-04-01T03:03:29;19.65;;;6.70;;
63688;SDS011;54895;40.928;14.480;2023-04-01T03:05:55;25.58;;;7.15;;
63688;SDS011;54895;40.928;14.480;2023-04-01T03:08:22;22.35;;;6.75;;
63688;SDS011;54895;40.928;14.480;2023-04-01T03:10:48;15.48;;;6.38;;
63688;SDS011;54895;40.928;14.480;2023-04-01T03:13:15;22.95;;;6.82;;
63688;SDS011;54895;40.928;14.480;2023-04-01T03:15:42;24.00;;;7.57;;
63688;SDS011;54895;40.928;14.480;2023-04-01T03:18:09;26.33;;;7.85;;
63688;SDS011;54895;40.928;14.480;2023-04-01T03:20:36;27.15;;;7.47;;
63688;SDS011;54895;40.928;14.480;2023-04-01T03:23:02;20.55;;;6.25;;
63688;SDS011;54895;40.928;14.480;2023-04-01T03:25:28;18.65;;;6.40;;
63688;SDS011;54895;40.928;14.480;2023-04-01T03:27:56;25.08;;;7.32;;
63688;SDS011;54895;40.928;14.480;2023-04-01T03:30:25;25.20;;;7.13;;
63688;SDS011;54895;40.928;14.480;2023-04-01T03:32:52;27.65;;;7.13;;
63688;SDS011;54895;40.928;14.480;2023-04-01T03:35:18;20.85;;;7.30;;
63688;SDS011;54895;40.928;14.480;2023-04-01T03:37:45;17.25;;;6.55;;
63688;SDS011;54895;40.928;14.480;2023-04-01T03:40:12;26.00;;;7.30;;
63688;SDS011;54895;40.928;14.480;2023-04-01T03:42:38;22.70;;;7.32;;
63688;SDS011;54895;40.928;14.480;2023-04-01T03:45:05;18.88;;;6.97;;
63688;SDS011;54895;40.928;14.480;2023-04-01T03:47:32;19.88;;;7.30;;
63688;SDS011;54895;40.928;14.480;2023-04-01T03:49:58;23.98;;;6.75;;
63688;SDS011;54895;40.928;14.480;2023-04-01T03:52:26;26.70;;;5.80;;
63688;SDS011;54895;40.928;14.480;2023-04-01T03:54:52;24.65;;;6.97;;
63688;SDS011;54895;40.928;14.480;2023-04-01T03:57:19;24.73;;;5.78;;
63688;SDS011;54895;40.928;14.480;2023-04-01T03:59:46;24.75;;;6.40;;
63688;SDS011;54895;40.928;14.480;2023-04-01T04:02:12;27.15;;;6.78;;
63688;SDS011;54895;40.928;14.480;2023-04-01T04:04:39;20.77;;;6.68;;
63688;SDS011;54895;40.928;14.480;2023-04-01T04:07:06;22.33;;;7.35;;
63688;SDS011;54895;40.928;14.480;2023-04-01T04:09:51;27.98;;;7.00;;
63688;SDS011;54895;40.928;14.480;2023-04-01T04:12:17;22.15;;;8.05;;
63688;SDS011;54895;40.928;14.480;2023-04-01T04:14:44;21.45;;;7.65;;
63688;SDS011;54895;40.928;14.480;2023-04-01T04:17:12;29.40;;;8.00;;
63688;SDS011;54895;40.928;14.480;2023-04-01T04:19:43;21.17;;;6.65;;
63688;SDS011;54895;40.928;14.480;2023-04-01T04:22:10;31.50;;;8.40;;
63688;SDS011;54895;40.928;14.480;2023-04-01T04:24:37;32.97;;;8.63;;
63688;SDS011;54895;40.928;14.480;2023-04-01T04:27:08;29.33;;;8.43;;
63688;SDS011;54895;40.928;14.480;2023-04-01T04:29:42;24.83;;;8.23;;
63688;SDS011;54895;40.928;14.480;2023-04-01T04:32:09;19.83;;;7.70;;
63688;SDS011;54895;40.928;14.480;2023-04-01T04:34:36;24.92;;;8.43;;
63688;SDS011;54895;40.928;14.480;2023-04-01T04:37:03;23.95;;;7.15;;
63688;SDS011;54895;40.928;14.480;2023-04-01T04:39:34;26.50;;;7.15;;
63688;SDS011;54895;40.928;14.480;2023-04-01T04:42:02;28.90;;;7.63;;
63688;SDS011;54895;40.928;14.480;2023-04-01T04:44:29;23.55;;;7.75;;
63688;SDS011;54895;40.928;14.480;2023-04-01T04:46:57;18.38;;;6.47;;
63688;SDS011;54895;40.928;14.480;2023-04-01T04:49:24;25.48;;;7.68;;
63688;SDS011;54895;40.928;14.480;2023-04-01T04:51:52;28.70;;;7.45;;
63688;SDS011;54895;40.928;14.480;2023-04-01T04:54:22;29.67;;;7.18;;
63688;SDS011;54895;40.928;14.480;2023-04-01T04:56:53;31.38;;;8.30;;
63688;SDS011;54895;40.928;14.480;2023-04-01T04:59:22;35.47;;;7.30;;
63688;SDS011;54895;40.928;14.480;2023-04-01T05:01:59;28.27;;;8.75;;
63688;SDS011;54895;40.928;14.480;2023-04-01T05:04:26;31.85;;;9.75;;
63688;SDS011;54895;40.928;14.480;2023-04-01T05:06:52;32.40;;;10.85;;
63688;SDS011;54895;40.928;14.480;2023-04-01T05:09:19;25.63;;;8.13;;
63688;SDS011;54895;40.928;14.480;2023-04-01T05:11:46;31.92;;;8.57;;
63688;SDS011;54895;40.928;14.480;2023-04-01T05:14:14;25.23;;;8.73;;
63688;SDS011;54895;40.928;14.480;2023-04-01T05:16:44;26.05;;;7.70;;
63688;SDS011;54895;40.928;14.480;2023-04-01T05:19:11;26.23;;;7.97;;
63688;SDS011;54895;40.928;14.480;2023-04-01T05:24:47;20.67;;;8.10;;
63688;SDS011;54895;40.928;14.480;2023-04-01T05:27:14;28.30;;;9.13;;
63688;SDS011;54895;40.928;14.480;2023-04-01T05:29:41;28.88;;;8.73;;
63688;SDS011;54895;40.928;14.480;2023-04-01T05:32:16;27.92;;;8.73;;
63688;SDS011;54895;40.928;14.480;2023-04-01T05:34:42;28.02;;;8.18;;
63688;SDS011;54895;40.928;14.480;2023-04-01T05:37:09;23.15;;;7.93;;
63688;SDS011;54895;40.928;14.480;2023-04-01T05:39:37;25.75;;;8.13;;
63688;SDS011;54895;40.928;14.480;2023-04-01T05:42:07;24.20;;;9.60;;
63688;SDS011;54895;40.928;14.480;2023-04-01T05:44:35;30.15;;;6.93;;
63688;SDS011;54895;40.928;14.480;2023-04-01T05:47:02;23.02;;;6.38;;
63688;SDS011;54895;40.928;14.480;2023-04-01T05:49:29;19.13;;;5.47;;
63688;SDS011;54895;40.928;14.480;2023-04-01T05:51:56;26.08;;;6.15;;
63688;SDS011;54895;40.928;14.480;2023-04-01T05:54:23;19.42;;;6.40;;
63688;SDS011;54895;40.928;14.480;2023-04-01T05:56:49;20.83;;;5.88;;
63688;SDS011;54895;40.928;14.480;2023-04-01T05:59:16;16.25;;;6.05;;
63688;SDS011;54895;40.928;14.480;2023-04-01T06:01:43;18.98;;;6.30;;
63688;SDS011;54895;40.928;14.480;2023-04-01T06:04:13;22.08;;;6.05;;
63688;SDS011;54895;40.928;14.480;2023-04-01T06:06:42;22.35;;;5.70;;
63688;SDS011;54895;40.928;14.480;2023-04-01T06:09:25;16.85;;;4.88;;
63688;SDS011;54895;40.928;14.480;2023-04-01T06:20:42;22.45;;;6.18;;
63688;SDS011;54895;40.928;14.480;2023-04-01T06:23:45;27.25;;;6.68;;
63688;SDS011;54895;40.928;14.480;2023-04-01T06:26:37;20.30;;;5.90;;
63688;SDS011;54895;40.928;14.480;2023-04-01T06:32:18;21.27;;;5.60;;
63688;SDS011;54895;40.928;14.480;2023-04-01T06:38:10;21.10;;;6.25;;
63688;SDS011;54895;40.928;14.480;2023-04-01T06:49:17;22.10;;;5.78;;
63688;SDS011;54895;40.928;14.480;2023-04-01T06:55:30;23.17;;;5.93;;
63688;SDS011;54895;40.928;14.480;2023-04-01T06:58:29;23.98;;;6.65;;
63688;SDS011;54895;40.928;14.480;2023-04-01T07:01:02;18.95;;;5.68;;
63688;SDS011;54895;40.928;14.480;2023-04-01T07:03:33;18.25;;;5.40;;
63688;SDS011;54895;40.928;14.480;2023-04-01T07:06:08;22.52;;;5.85;;
63688;SDS011;54895;40.928;14.480;2023-04-01T07:08:48;16.38;;;5.60;;
63688;SDS011;54895;40.928;14.480;2023-04-01T07:11:35;16.50;;;4.97;;
63688;SDS011;54895;40.928;14.480;2023-04-01T07:14:35;24.25;;;5.28;;
63688;SDS011;54895;40.928;14.480;2023-04-01T07:22:33;19.90;;;5.15;;
63688;SDS011;54895;40.928;14.480;2023-04-01T07:25:25;19.13;;;5.32;;
63688;SDS011;54895;40.928;14.480;2023-04-01T07:28:21;23.13;;;5.90;;
63688;SDS011;54895;40.928;14.480;2023-04-01T07:33:44;24.23;;;6.45;;
63688;SDS011;54895;40.928;14.480;2023-04-01T07:57:08;19.40;;;4.95;;
63688;SDS011;54895;40.928;14.480;2023-04-01T07:59:33;24.17;;;6.07;;
63688;SDS011;54895;40.928;14.480;2023-04-01T08:07:59;20.80;;;5.18;;
63688;SDS011;54895;40.928;14.480;2023-04-01T08:13:40;18.60;;;4.30;;
63688;SDS011;54895;40.928;14.480;2023-04-01T08:19:34;20.60;;;4.82;;
63688;SDS011;54895;40.928;14.480;2023-04-01T08:22:36;24.10;;;5.53;;
63688;SDS011;54895;40.928;14.480;2023-04-01T08:25:17;20.95;;;5.22;;
63688;SDS011;54895;40.928;14.480;2023-04-01T08:33:26;20.63;;;4.45;;
63688;SDS011;54895;40.928;14.480;2023-04-01T08:36:07;30.23;;;5.72;;
63688;SDS011;54895;40.928;14.480;2023-04-01T08:53:23;16.60;;;4.30;;
63688;SDS011;54895;40.928;14.480;2023-04-01T09:01:37;27.67;;;4.88;;
63688;SDS011;54895;40.928;14.480;2023-04-01T09:10:25;20.92;;;4.32;;
63688;SDS011;54895;40.928;14.480;2023-04-01T09:21:35;22.42;;;4.65;;
63688;SDS011;54895;40.928;14.480;2023-04-01T09:24:26;23.80;;;5.43;;
63688;SDS011;54895;40.928;14.480;2023-04-01T09:35:14;19.60;;;4.53;;
63688;SDS011;54895;40.928;14.480;2023-04-01T09:37:52;22.52;;;5.25;;
63688;SDS011;54895;40.928;14.480;2023-04-01T10:11:37;9.68;;;3.03;;
63688;SDS011;54895;40.928;14.480;2023-04-01T10:27:41;16.02;;;3.35;;
63688;SDS011;54895;40.928;14.480;2023-04-01T10:39:51;8.15;;;2.30;;
63688;SDS011;54895;40.928;14.480;2023-04-01T11:01:05;4.10;;;1.30;;
63688;SDS011;54895;40.928;14.480;2023-04-01T11:04:06;16.50;;;2.65;;
63688;SDS011;54895;40.928;14.480;2023-04-01T11:07:36;8.35;;;2.45;;
63688;SDS011;54895;40.928;14.480;2023-04-01T11:15:54;4.15;;;1.58;;
63688;SDS011;54895;40.928;14.480;2023-04-01T11:18:41;9.50;;;2.10;;
63688;SDS011;54895;40.928;14.480;2023-04-01T11:40:59;12.25;;;2.53;;
63688;SDS011;54895;40.928;14.480;2023-04-01T11:44:16;9.85;;;2.28;;
63688;SDS011;54895;40.928;14.480;2023-04-01T11:47:22;11.25;;;1.85;;
63688;SDS011;54895;40.928;14.480;2023-04-01T11:58:33;7.47;;;1.73;;
63688;SDS011;54895;40.928;14.480;2023-04-01T12:14:11;5.43;;;1.67;;
63688;SDS011;54895;40.928;14.480;2023-04-01T12:19:33;3.88;;;1.17;;
63688;SDS011;54895;40.928;14.480;2023-04-01T12:22:27;3.53;;;1.10;;
63688;SDS011;54895;40.928;14.480;2023-04-01T12:34:30;4.57;;;1.35;;
63688;SDS011;54895;40.928;14.480;2023-04-01T12:51:57;14.45;;;3.00;;
63688;SDS011;54895;40.928;14.480;2023-04-01T12:54:48;9.65;;;2.33;;
63688;SDS011;54895;40.928;14.480;2023-04-01T13:19:34;10.52;;;2.78;;
63688;SDS011;54895;40.928;14.480;2023-04-01T13:22:12;12.38;;;2.80;;
63688;SDS011;54895;40.928;14.480;2023-04-01T13:32:45;13.30;;;3.05;;
63688;SDS011;54895;40.928;14.480;2023-04-01T13:40:26;17.33;;;3.53;;
63688;SDS011;54895;40.928;14.480;2023-04-01T13:42:54;8.30;;;2.35;;
63688;SDS011;54895;40.928;14.480;2023-04-01T13:45:29;14.57;;;3.05;;
63688;SDS011;54895;40.928;14.480;2023-04-01T13:54:22;14.57;;;3.83;;
63688;SDS011;54895;40.928;14.480;2023-04-01T13:57:00;14.18;;;3.58;;
63688;SDS011;54895;40.928;14.480;2023-04-01T13:59:46;13.93;;;3.67;;
63688;SDS011;54895;40.928;14.480;2023-04-01T14:05:09;23.83;;;3.20;;
63688;SDS011;54895;40.928;14.480;2023-04-01T14:13:06;17.23;;;4.30;;
63688;SDS011;54895;40.928;14.480;2023-04-01T14:16:04;12.48;;;3.75;;
63688;SDS011;54895;40.928;14.480;2023-04-01T14:18:59;17.70;;;3.33;;
63688;SDS011;54895;40.928;14.480;2023-04-01T14:21:35;15.68;;;3.50;;
63688;SDS011;54895;40.928;14.480;2023-04-01T14:24:23;17.45;;;4.05;;
63688;SDS011;54895;40.928;14.480;2023-04-01T14:35:41;10.80;;;2.72;;
63688;SDS011;54895;40.928;14.480;2023-04-01T14:38:29;20.75;;;4.90;;
63688;SDS011;54895;40.928;14.480;2023-04-01T14:43:41;17.38;;;4.00;;
63688;SDS011;54895;40.928;14.480;2023-04-01T14:49:33;18.02;;;3.90;;
63688;SDS011;54895;40.928;14.480;2023-04-01T14:52:09;17.25;;;3.40;;
63688;SDS011;54895;40.928;14.480;2023-04-01T14:54:44;20.15;;;3.55;;
63688;SDS011;54895;40.928;14.480;2023-04-01T14:57:20;13.55;;;3.35;;
63688;SDS011;54895;40.928;14.480;2023-04-01T15:06:26;17.05;;;3.90;;
63688;SDS011;54895;40.928;14.480;2023-04-01T15:28:33;13.63;;;2.70;;
63688;SDS011;54895;40.928;14.480;2023-04-01T15:47:56;18.45;;;3.75;;
63688;SDS011;54895;40.928;14.480;2023-04-01T16:06:27;25.08;;;5.07;;
63688;SDS011;54895;40.928;14.480;2023-04-01T16:26:28;16.02;;;4.07;;
63688;SDS011;54895;40.928;14.480;2023-04-01T16:29:00;25.35;;;4.88;;
63688;SDS011;54895;40.928;14.480;2023-04-01T16:34:30;19.65;;;4.32;;
63688;SDS011;54895;40.928;14.480;2023-04-01T16:37:09;14.38;;;3.88;;
63688;SDS011;54895;40.928;14.480;2023-04-01T16:43:10;22.42;;;4.38;;
63688;SDS011;54895;40.928;14.480;2023-04-01T16:45:54;23.58;;;3.85;;
63688;SDS011;54895;40.928;14.480;2023-04-01T16:48:36;21.52;;;3.92;;
63688;SDS011;54895;40.928;14.480;2023-04-01T16:52:04;13.45;;;2.90;;
63688;SDS011;54895;40.928;14.480;2023-04-01T17:05:48;26.55;;;5.88;;
63688;SDS011;54895;40.928;14.480;2023-04-01T17:11:16;23.33;;;5.13;;
63688;SDS011;54895;40.928;14.480;2023-04-01T17:19:23;22.42;;;4.95;;
63688;SDS011;54895;40.928;14.480;2023-04-01T17:36:05;25.83;;;6.35;;
63688;SDS011;54895;40.928;14.480;2023-04-01T17:58:50;37.53;;;6.85;;
63688;SDS011;54895;40.928;14.480;2023-04-01T18:07:07;36.42;;;6.32;;
63688;SDS011;54895;40.928;14.480;2023-04-01T18:09:42;27.00;;;5.32;;
63688;SDS011;54895;40.928;14.480;2023-04-01T18:15:13;23.08;;;5.00;;
63688;SDS011;54895;40.928;14.480;2023-04-01T18:23:30;30.33;;;5.63;;
63688;SDS011;54895;40.928;14.480;2023-04-01T18:26:08;31.92;;;6.68;;
63688;SDS011;54895;40.928;14.480;2023-04-01T18:28:48;22.45;;;6.13;;
63688;SDS011;54895;40.928;14.480;2023-04-01T18:31:23;30.50;;;5.82;;
63688;SDS011;54895;40.928;14.480;2023-04-01T18:36:39;36.90;;;6.55;;
63688;SDS011;54895;40.928;14.480;2023-04-01T18:39:11;32.45;;;6.88;;
63688;SDS011;54895;40.928;14.480;2023-04-01T18:41:53;29.40;;;5.70;;
63688;SDS011;54895;40.928;14.480;2023-04-01T18:44:31;30.33;;;6.22;;
63688;SDS011;54895;40.928;14.480;2023-04-01T18:56:03;38.17;;;6.63;;
63688;SDS011;54895;40.928;14.480;2023-04-01T18:58:36;39.03;;;6.97;;
63688;SDS011;54895;40.928;14.480;2023-04-01T19:21:04;30.33;;;6.13;;
63688;SDS011;54895;40.928;14.480;2023-04-01T19:40:54;26.40;;;6.13;;
63688;SDS011;54895;40.928;14.480;2023-04-01T19:59:46;30.48;;;6.75;;
63688;SDS011;54895;40.928;14.480;2023-04-01T20:02:26;29.55;;;6.95;;
63688;SDS011;54895;40.928;14.480;2023-04-01T20:05:00;39.17;;;7.72;;
63688;SDS011;54895;40.928;14.480;2023-04-01T20:07:43;38.10;;;7.07;;
63688;SDS011;54895;40.928;14.480;2023-04-01T20:15:55;26.73;;;6.32;;
63688;SDS011;54895;40.928;14.480;2023-04-01T20:18:37;36.75;;;7.75;;
63688;SDS011;54895;40.928;14.480;2023-04-01T20:24:01;38.40;;;8.20;;
63688;SDS011;54895;40.928;14.480;2023-04-01T20:26:33;38.60;;;9.80;;
63688;SDS011;54895;40.928;14.480;2023-04-01T20:32:18;38.97;;;8.98;;
63688;SDS011;54895;40.928;14.480;2023-04-01T20:46:30;37.25;;;10.45;;
63688;SDS011;54895;40.928;14.480;2023-04-01T20:57:00;38.20;;;10.30;;
63688;SDS011;54895;40.928;14.480;2023-04-01T21:05:38;36.00;;;10.38;;
63688;SDS011;54895;40.928;14.480;2023-04-01T21:11:04;37.95;;;8.48;;
63688;SDS011;54895;40.928;14.480;2023-04-01T21:25:27;31.48;;;7.60;;
63688;SDS011;54895;40.928;14.480;2023-04-01T21:30:32;26.65;;;6.85;;
63688;SDS011;54895;40.928;14.480;2023-04-01T21:35:56;30.65;;;7.50;;
63688;SDS011;54895;40.928;14.480;2023-04-01T21:43:54;36.53;;;9.00;;
63688;SDS011;54895;40.928;14.480;2023-04-01T22:09:45;35.63;;;10.82;;
63688;SDS011;54895;40.928;14.480;2023-04-01T22:12:33;34.78;;;11.13;;
63688;SDS011;54895;40.928;14.480;2023-04-01T22:15:16;38.75;;;9.95;;
63688;SDS011;54895;40.928;14.480;2023-04-01T22:18:06;36.22;;;9.82;;
63688;SDS011;54895;40.928;14.480;2023-04-01T22:20:41;31.60;;;8.27;;
63688;SDS011;54895;40.928;14.480;2023-04-01T22:23:32;30.52;;;7.95;;
63688;SDS011;54895;40.928;14.480;2023-04-01T22:26:33;31.00;;;7.45;;
63688;SDS011;54895;40.928;14.480;2023-04-01T22:29:20;39.80;;;7.90;;
63688;SDS011;54895;40.928;14.480;2023-04-01T22:31:58;28.90;;;6.68;;
63688;SDS011;54895;40.928;14.480;2023-04-01T22:34:35;38.63;;;7.20;;
63688;SDS011;54895;40.928;14.480;2023-04-01T22:37:12;28.92;;;6.95;;
63688;SDS011;54895;40.928;14.480;2023-04-01T22:39:56;26.08;;;6.13;;
63688;SDS011;54895;40.928;14.480;2023-04-01T22:47:44;26.75;;;6.57;;
63688;SDS011;54895;40.928;14.480;2023-04-01T22:50:40;27.42;;;6.93;;
63688;SDS011;54895;40.928;14.480;2023-04-01T22:55:53;33.75;;;8.40;;
63688;SDS011;54895;40.928;14.480;2023-04-01T22:58:36;32.97;;;7.75;;
63688;SDS011;54895;40.928;14.480;2023-04-01T23:01:11;35.42;;;8.27;;
63688;SDS011;54895;40.928;14.480;2023-04-01T23:03:42;30.13;;;7.88;;
63688;SDS011;54895;40.928;14.480;2023-04-01T23:06:15;32.60;;;6.63;;
63688;SDS011;54895;40.928;14.480;2023-04-01T23:11:37;34.83;;;7.07;;
63688;SDS011;54895;40.928;14.480;2023-04-01T23:16:45;25.52;;;6.25;;
63688;SDS011;54895;40.928;14.480;2023-04-01T23:20:20;34.30;;;6.30;;
63688;SDS011;54895;40.928;14.480;2023-04-01T23:35:57;28.60;;;5.55;;
63688;SDS011;54895;40.928;14.480;2023-04-01T23:38:37;23.73;;;6.35;;
63688;SDS011;54895;40.928;14.480;2023-04-01T23:41:07;29.75;;;6.57;;
63688;SDS011;54895;40.928;14.480;2023-04-01T23:43:44;34.30;;;6.85;;
63688;SDS011;54895;40.928;14.480;2023-04-01T23:46:11;36.85;;;7.13;;
63688;SDS011;54895;40.928;14.480;2023-04-01T23:48:40;29.23;;;6.55;;
63688;SDS011;54895;40.928;14.480;2023-04-01T23:53:56;30.05;;;6.82;;
63688;SDS011;54895;40.928;14.480;2023-04-01T23:56:33;32.97;;;6.78;;
63688;SDS011;54895;40.928;14.480;2023-04-01T23:59:24;26.85;;;6.43;;
